sensor_id;sensor_type;location;lat;lon;timestamp;temperature;humidity
74513;DHT22;62992;52.052;8.550;2023-06-14T00:01:51;17.20;93.60
74513;DHT22;62992;52.052;8.550;2023-06-14T00:04:35;17.10;93.70
74513;DHT22;62992;52.052;8.550;2023-06-14T00:07:22;17.10;94.10
74513;DHT22;62992;52.052;8.550;2023-06-14T00:10:16;17.10;93.50
74513;DHT22;62992;52.052;8.550;2023-06-14T00:13:04;17.20;93.50
74513;DHT22;62992;52.052;8.550;2023-06-14T00:15:48;17.10;93.80
74513;DHT22;62992;52.052;8.550;2023-06-14T00:18:32;17.20;93.10
74513;DHT22;62992;52.052;8.550;2023-06-14T00:21:17;17.20;92.40
74513;DHT22;62992;52.052;8.550;2023-06-14T00:24:02;17.10;93.50
74513;DHT22;62992;52.052;8.550;2023-06-14T00:26:46;17.10;93.10
74513;DHT22;62992;52.052;8.550;2023-06-14T00:29:30;16.90;93.50
74513;DHT22;62992;52.052;8.550;2023-06-14T00:32:15;16.90;94.10
74513;DHT22;62992;52.052;8.550;2023-06-14T00:34:59;16.80;94.20
74513;DHT22;62992;52.052;8.550;2023-06-14T00:37:43;16.70;94.20
74513;DHT22;62992;52.052;8.550;2023-06-14T00:40:27;16.70;94.80
74513;DHT22;62992;52.052;8.550;2023-06-14T00:43:11;16.60;94.70
74513;DHT22;62992;52.052;8.550;2023-06-14T00:45:55;16.60;94.00
74513;DHT22;62992;52.052;8.550;2023-06-14T00:48:40;16.60;94.50
74513;DHT22;62992;52.052;8.550;2023-06-14T00:51:24;16.60;94.70
74513;DHT22;62992;52.052;8.550;2023-06-14T00:54:08;16.50;95.40
74513;DHT22;62992;52.052;8.550;2023-06-14T00:56:52;16.40;95.40
74513;DHT22;62992;52.052;8.550;2023-06-14T00:59:43;16.30;95.40
74513;DHT22;62992;52.052;8.550;2023-06-14T01:02:28;16.30;95.50
74513;DHT22;62992;52.052;8.550;2023-06-14T01:05:12;16.20;95.60
74513;DHT22;62992;52.052;8.550;2023-06-14T01:14:04;16.00;95.70
74513;DHT22;62992;52.052;8.550;2023-06-14T01:16:49;16.00;95.90
74513;DHT22;62992;52.052;8.550;2023-06-14T01:19:36;15.90;96.10
74513;DHT22;62992;52.052;8.550;2023-06-14T01:22:20;15.90;96.40
74513;DHT22;62992;52.052;8.550;2023-06-14T01:25:05;15.80;96.60
74513;DHT22;62992;52.052;8.550;2023-06-14T01:27:57;15.80;96.80
74513;DHT22;62992;52.052;8.550;2023-06-14T01:30:42;15.60;96.80
74513;DHT22;62992;52.052;8.550;2023-06-14T01:33:28;15.60;97.40
74513;DHT22;62992;52.052;8.550;2023-06-14T01:36:12;15.50;97.80
74513;DHT22;62992;52.052;8.550;2023-06-14T01:38:58;15.50;98.00
74513;DHT22;62992;52.052;8.550;2023-06-14T01:41:43;15.50;98.60
74513;DHT22;62992;52.052;8.550;2023-06-14T01:44:27;15.40;98.60
74513;DHT22;62992;52.052;8.550;2023-06-14T01:47:12;15.30;98.90
74513;DHT22;62992;52.052;8.550;2023-06-14T01:49:56;15.20;99.10
74513;DHT22;62992;52.052;8.550;2023-06-14T01:52:40;15.20;99.30
74513;DHT22;62992;52.052;8.550;2023-06-14T01:55:25;15.10;99.50
74513;DHT22;62992;52.052;8.550;2023-06-14T01:58:09;15.20;99.50
74513;DHT22;62992;52.052;8.550;2023-06-14T02:00:54;15.10;99.70
74513;DHT22;62992;52.052;8.550;2023-06-14T02:03:39;15.00;99.90
74513;DHT22;62992;52.052;8.550;2023-06-14T02:06:23;14.90;99.90
74513;DHT22;62992;52.052;8.550;2023-06-14T02:09:08;14.90;99.90
74513;DHT22;62992;52.052;8.550;2023-06-14T02:11:52;14.90;99.90
74513;DHT22;62992;52.052;8.550;2023-06-14T02:14:36;14.80;99.90
74513;DHT22;62992;52.052;8.550;2023-06-14T02:17:22;14.80;99.90
74513;DHT22;62992;52.052;8.550;2023-06-14T02:20:06;14.70;99.90
74513;DHT22;62992;52.052;8.550;2023-06-14T02:22:51;14.70;99.90
74513;DHT22;62992;52.052;8.550;2023-06-14T02:25:36;14.70;99.90
74513;DHT22;62992;52.052;8.550;2023-06-14T02:28:20;14.60;99.90
74513;DHT22;62992;52.052;8.550;2023-06-14T02:31:04;14.60;99.90
74513;DHT22;62992;52.052;8.550;2023-06-14T02:33:48;14.60;99.90
74513;DHT22;62992;52.052;8.550;2023-06-14T02:36:32;14.40;99.90
74513;DHT22;62992;52.052;8.550;2023-06-14T02:39:16;14.40;99.90
74513;DHT22;62992;52.052;8.550;2023-06-14T02:42:01;14.40;99.90
74513;DHT22;62992;52.052;8.550;2023-06-14T02:44:45;14.30;99.90
74513;DHT22;62992;52.052;8.550;2023-06-14T02:47:35;14.30;99.90
74513;DHT22;62992;52.052;8.550;2023-06-14T02:50:19;14.30;99.90
74513;DHT22;62992;52.052;8.550;2023-06-14T02:53:05;14.20;99.90
74513;DHT22;62992;52.052;8.550;2023-06-14T02:55:50;14.20;99.90
74513;DHT22;62992;52.052;8.550;2023-06-14T02:58:36;14.10;99.90
74513;DHT22;62992;52.052;8.550;2023-06-14T03:01:20;14.10;99.90
74513;DHT22;62992;52.052;8.550;2023-06-14T03:04:05;14.10;99.90
74513;DHT22;62992;52.052;8.550;2023-06-14T03:06:49;14.10;99.90
74513;DHT22;62992;52.052;8.550;2023-06-14T03:09:34;14.10;99.90
74513;DHT22;62992;52.052;8.550;2023-06-14T03:12:18;14.00;99.90
74513;DHT22;62992;52.052;8.550;2023-06-14T03:15:02;14.00;99.90
74513;DHT22;62992;52.052;8.550;2023-06-14T03:17:47;14.00;99.90
74513;DHT22;62992;52.052;8.550;2023-06-14T03:20:33;13.90;99.90
74513;DHT22;62992;52.052;8.550;2023-06-14T03:23:17;14.00;99.90
74513;DHT22;62992;52.052;8.550;2023-06-14T03:26:01;14.00;99.90
74513;DHT22;62992;52.052;8.550;2023-06-14T03:28:46;13.90;99.90
74513;DHT22;62992;52.052;8.550;2023-06-14T03:31:30;13.90;99.90
74513;DHT22;62992;52.052;8.550;2023-06-14T03:34:16;13.80;99.90
74513;DHT22;62992;52.052;8.550;2023-06-14T03:37:01;13.80;99.90
74513;DHT22;62992;52.052;8.550;2023-06-14T03:39:45;13.90;99.90
74513;DHT22;62992;52.052;8.550;2023-06-14T03:42:31;13.80;99.90
74513;DHT22;62992;52.052;8.550;2023-06-14T03:45:15;13.80;99.90
74513;DHT22;62992;52.052;8.550;2023-06-14T03:48:00;13.80;99.90
74513;DHT22;62992;52.052;8.550;2023-06-14T03:50:44;13.80;99.90
74513;DHT22;62992;52.052;8.550;2023-06-14T03:53:28;13.70;99.90
74513;DHT22;62992;52.052;8.550;2023-06-14T03:56:13;13.70;99.90
74513;DHT22;62992;52.052;8.550;2023-06-14T03:58:57;13.80;99.90
74513;DHT22;62992;52.052;8.550;2023-06-14T04:01:42;13.90;99.90
74513;DHT22;62992;52.052;8.550;2023-06-14T04:04:28;13.90;99.90
74513;DHT22;62992;52.052;8.550;2023-06-14T04:07:12;13.90;99.90
74513;DHT22;62992;52.052;8.550;2023-06-14T04:09:57;13.90;99.90
74513;DHT22;62992;52.052;8.550;2023-06-14T04:12:41;14.00;99.90
74513;DHT22;62992;52.052;8.550;2023-06-14T04:15:26;14.00;99.90
74513;DHT22;62992;52.052;8.550;2023-06-14T04:18:13;14.10;99.90
74513;DHT22;62992;52.052;8.550;2023-06-14T04:20:57;14.20;99.90
74513;DHT22;62992;52.052;8.550;2023-06-14T04:23:41;14.30;99.90
74513;DHT22;62992;52.052;8.550;2023-06-14T04:26:27;14.40;99.90
74513;DHT22;62992;52.052;8.550;2023-06-14T04:29:17;14.40;99.90
74513;DHT22;62992;52.052;8.550;2023-06-14T04:32:03;14.50;99.90
74513;DHT22;62992;52.052;8.550;2023-06-14T04:34:48;14.60;99.90
74513;DHT22;62992;52.052;8.550;2023-06-14T04:37:32;14.80;99.90
74513;DHT22;62992;52.052;8.550;2023-06-14T04:40:17;14.90;99.90
74513;DHT22;62992;52.052;8.550;2023-06-14T04:43:01;15.00;99.90
74513;DHT22;62992;52.052;8.550;2023-06-14T04:45:48;15.10;99.90
74513;DHT22;62992;52.052;8.550;2023-06-14T04:48:32;15.10;99.90
74513;DHT22;62992;52.052;8.550;2023-06-14T04:51:17;15.20;99.90
74513;DHT22;62992;52.052;8.550;2023-06-14T04:54:04;15.30;99.90
74513;DHT22;62992;52.052;8.550;2023-06-14T04:56:48;15.40;99.90
74513;DHT22;62992;52.052;8.550;2023-06-14T04:59:33;15.40;99.90
74513;DHT22;62992;52.052;8.550;2023-06-14T05:02:19;15.50;99.90
74513;DHT22;62992;52.052;8.550;2023-06-14T05:05:03;15.50;99.90
74513;DHT22;62992;52.052;8.550;2023-06-14T05:07:52;15.60;99.90
74513;DHT22;62992;52.052;8.550;2023-06-14T05:10:37;15.70;99.90
74513;DHT22;62992;52.052;8.550;2023-06-14T05:13:21;15.80;99.90
74513;DHT22;62992;52.052;8.550;2023-06-14T05:16:07;16.00;99.90
74513;DHT22;62992;52.052;8.550;2023-06-14T05:18:51;16.20;99.90
74513;DHT22;62992;52.052;8.550;2023-06-14T05:21:36;16.20;99.90
74513;DHT22;62992;52.052;8.550;2023-06-14T05:24:20;16.40;99.90
74513;DHT22;62992;52.052;8.550;2023-06-14T05:27:05;16.60;99.90
74513;DHT22;62992;52.052;8.550;2023-06-14T05:29:49;16.90;99.90
74513;DHT22;62992;52.052;8.550;2023-06-14T05:32:34;17.00;99.00
74513;DHT22;62992;52.052;8.550;2023-06-14T05:35:18;17.20;99.50
74513;DHT22;62992;52.052;8.550;2023-06-14T05:38:02;17.60;98.60
74513;DHT22;62992;52.052;8.550;2023-06-14T05:40:46;18.00;98.50
74513;DHT22;62992;52.052;8.550;2023-06-14T05:43:30;18.30;97.90
74513;DHT22;62992;52.052;8.550;2023-06-14T05:46:15;18.30;96.80
74513;DHT22;62992;52.052;8.550;2023-06-14T05:48:59;18.60;97.70
74513;DHT22;62992;52.052;8.550;2023-06-14T05:51:43;18.90;97.00
74513;DHT22;62992;52.052;8.550;2023-06-14T05:54:27;19.00;97.00
74513;DHT22;62992;52.052;8.550;2023-06-14T05:57:12;18.90;95.80
74513;DHT22;62992;52.052;8.550;2023-06-14T05:59:56;18.70;96.50
74513;DHT22;62992;52.052;8.550;2023-06-14T06:02:41;19.60;96.30
74513;DHT22;62992;52.052;8.550;2023-06-14T06:05:26;19.40;95.20
74513;DHT22;62992;52.052;8.550;2023-06-14T06:08:11;20.30;94.70
74513;DHT22;62992;52.052;8.550;2023-06-14T06:10:55;20.20;94.00
74513;DHT22;62992;52.052;8.550;2023-06-14T06:13:39;20.80;92.80
74513;DHT22;62992;52.052;8.550;2023-06-14T06:16:24;21.40;92.60
74513;DHT22;62992;52.052;8.550;2023-06-14T06:19:08;22.20;91.40
74513;DHT22;62992;52.052;8.550;2023-06-14T06:21:52;22.20;91.40
74513;DHT22;62992;52.052;8.550;2023-06-14T06:24:37;22.40;90.90
74513;DHT22;62992;52.052;8.550;2023-06-14T06:27:21;22.80;89.90
74513;DHT22;62992;52.052;8.550;2023-06-14T06:30:05;23.00;88.80
74513;DHT22;62992;52.052;8.550;2023-06-14T06:32:50;23.00;89.20
74513;DHT22;62992;52.052;8.550;2023-06-14T06:35:34;23.70;87.60
74513;DHT22;62992;52.052;8.550;2023-06-14T06:38:19;23.70;87.70
74513;DHT22;62992;52.052;8.550;2023-06-14T06:41:03;23.80;86.50
74513;DHT22;62992;52.052;8.550;2023-06-14T06:43:47;23.20;85.70
74513;DHT22;62992;52.052;8.550;2023-06-14T06:46:32;23.50;85.50
74513;DHT22;62992;52.052;8.550;2023-06-14T06:49:16;23.80;84.40
74513;DHT22;62992;52.052;8.550;2023-06-14T06:54:45;23.80;81.70
74513;DHT22;62992;52.052;8.550;2023-06-14T06:57:29;23.70;83.30
74513;DHT22;62992;52.052;8.550;2023-06-14T07:00:14;24.40;82.90
74513;DHT22;62992;52.052;8.550;2023-06-14T07:02:58;23.80;83.10
74513;DHT22;62992;52.052;8.550;2023-06-14T07:05:43;24.20;83.20
74513;DHT22;62992;52.052;8.550;2023-06-14T07:08:27;25.10;81.30
74513;DHT22;62992;52.052;8.550;2023-06-14T07:11:11;25.00;80.30
74513;DHT22;62992;52.052;8.550;2023-06-14T07:13:55;24.70;81.90
74513;DHT22;62992;52.052;8.550;2023-06-14T07:16:40;23.80;81.00
74513;DHT22;62992;52.052;8.550;2023-06-14T07:19:24;24.00;82.20
74513;DHT22;62992;52.052;8.550;2023-06-14T07:22:08;24.40;79.90
74513;DHT22;62992;52.052;8.550;2023-06-14T07:24:52;24.30;81.30
74513;DHT22;62992;52.052;8.550;2023-06-14T07:27:37;24.20;83.10
74513;DHT22;62992;52.052;8.550;2023-06-14T07:30:21;24.40;80.50
74513;DHT22;62992;52.052;8.550;2023-06-14T07:33:09;25.00;80.50
74513;DHT22;62992;52.052;8.550;2023-06-14T07:35:55;25.90;77.40
74513;DHT22;62992;52.052;8.550;2023-06-14T07:38:39;24.90;77.50
74513;DHT22;62992;52.052;8.550;2023-06-14T07:41:24;24.50;79.00
74513;DHT22;62992;52.052;8.550;2023-06-14T07:44:09;24.40;79.30
74513;DHT22;62992;52.052;8.550;2023-06-14T07:46:54;23.80;80.90
74513;DHT22;62992;52.052;8.550;2023-06-14T07:49:41;24.40;79.70
74513;DHT22;62992;52.052;8.550;2023-06-14T07:52:26;23.90;81.90
74513;DHT22;62992;52.052;8.550;2023-06-14T07:55:10;23.60;82.00
74513;DHT22;62992;52.052;8.550;2023-06-14T07:57:54;24.70;77.20
74513;DHT22;62992;52.052;8.550;2023-06-14T08:00:38;24.40;81.20
74513;DHT22;62992;52.052;8.550;2023-06-14T08:03:23;24.00;79.20
74513;DHT22;62992;52.052;8.550;2023-06-14T08:06:07;23.60;82.30
74513;DHT22;62992;52.052;8.550;2023-06-14T08:08:51;24.40;82.00
74513;DHT22;62992;52.052;8.550;2023-06-14T08:11:36;24.80;79.00
74513;DHT22;62992;52.052;8.550;2023-06-14T08:14:20;25.20;79.20
74513;DHT22;62992;52.052;8.550;2023-06-14T08:17:04;24.70;80.20
74513;DHT22;62992;52.052;8.550;2023-06-14T08:19:48;25.20;78.00
74513;DHT22;62992;52.052;8.550;2023-06-14T08:22:32;25.40;78.00
74513;DHT22;62992;52.052;8.550;2023-06-14T08:25:18;23.60;80.50
74513;DHT22;62992;52.052;8.550;2023-06-14T08:28:02;24.50;81.00
74513;DHT22;62992;52.052;8.550;2023-06-14T08:30:46;24.30;80.60
74513;DHT22;62992;52.052;8.550;2023-06-14T08:33:30;24.20;80.40
74513;DHT22;62992;52.052;8.550;2023-06-14T08:36:16;24.50;81.50
74513;DHT22;62992;52.052;8.550;2023-06-14T08:39:01;24.30;81.00
74513;DHT22;62992;52.052;8.550;2023-06-14T08:41:46;24.40;80.10
74513;DHT22;62992;52.052;8.550;2023-06-14T08:44:30;23.30;84.60
74513;DHT22;62992;52.052;8.550;2023-06-14T08:47:14;23.10;83.10
74513;DHT22;62992;52.052;8.550;2023-06-14T08:50:00;23.70;84.90
74513;DHT22;62992;52.052;8.550;2023-06-14T08:52:45;23.60;84.90
74513;DHT22;62992;52.052;8.550;2023-06-14T08:55:34;23.20;84.70
74513;DHT22;62992;52.052;8.550;2023-06-14T08:58:21;23.70;83.70
74513;DHT22;62992;52.052;8.550;2023-06-14T09:01:08;22.30;85.40
74513;DHT22;62992;52.052;8.550;2023-06-14T09:03:52;22.50;86.60
74513;DHT22;62992;52.052;8.550;2023-06-14T09:06:39;22.30;88.60
74513;DHT22;62992;52.052;8.550;2023-06-14T09:09:24;22.60;86.70
74513;DHT22;62992;52.052;8.550;2023-06-14T09:12:10;22.70;87.60
74513;DHT22;62992;52.052;8.550;2023-06-14T09:14:55;22.90;85.30
74513;DHT22;62992;52.052;8.550;2023-06-14T09:17:39;23.20;84.40
74513;DHT22;62992;52.052;8.550;2023-06-14T09:20:23;22.90;86.10
74513;DHT22;62992;52.052;8.550;2023-06-14T09:23:08;22.90;85.90
74513;DHT22;62992;52.052;8.550;2023-06-14T09:25:52;23.30;87.00
74513;DHT22;62992;52.052;8.550;2023-06-14T09:28:36;23.20;84.10
74513;DHT22;62992;52.052;8.550;2023-06-14T09:31:20;23.20;85.70
74513;DHT22;62992;52.052;8.550;2023-06-14T09:34:05;22.90;85.20
74513;DHT22;62992;52.052;8.550;2023-06-14T09:36:50;23.00;86.00
74513;DHT22;62992;52.052;8.550;2023-06-14T09:39:34;22.90;85.20
74513;DHT22;62992;52.052;8.550;2023-06-14T09:42:19;23.10;84.90
74513;DHT22;62992;52.052;8.550;2023-06-14T09:45:03;23.20;87.10
74513;DHT22;62992;52.052;8.550;2023-06-14T09:47:49;22.60;85.40
74513;DHT22;62992;52.052;8.550;2023-06-14T09:50:33;23.10;84.40
74513;DHT22;62992;52.052;8.550;2023-06-14T09:53:18;23.60;84.30
74513;DHT22;62992;52.052;8.550;2023-06-14T09:56:04;22.90;86.00
74513;DHT22;62992;52.052;8.550;2023-06-14T09:58:49;22.80;85.80
74513;DHT22;62992;52.052;8.550;2023-06-14T10:01:36;23.00;84.90
74513;DHT22;62992;52.052;8.550;2023-06-14T10:04:25;23.60;85.30
74513;DHT22;62992;52.052;8.550;2023-06-14T10:07:11;23.00;83.70
74513;DHT22;62992;52.052;8.550;2023-06-14T10:09:55;23.10;83.60
74513;DHT22;62992;52.052;8.550;2023-06-14T10:12:39;23.00;86.40
74513;DHT22;62992;52.052;8.550;2023-06-14T10:15:27;23.40;85.10
74513;DHT22;62992;52.052;8.550;2023-06-14T10:18:19;23.50;84.90
74513;DHT22;62992;52.052;8.550;2023-06-14T10:21:55;23.70;83.30
74513;DHT22;62992;52.052;8.550;2023-06-14T10:24:12;23.60;84.00
74513;DHT22;62992;52.052;8.550;2023-06-14T10:26:58;22.60;84.20
74513;DHT22;62992;52.052;8.550;2023-06-14T10:32:47;22.90;85.70
74513;DHT22;62992;52.052;8.550;2023-06-14T10:35:40;22.80;84.70
74513;DHT22;62992;52.052;8.550;2023-06-14T10:38:30;23.30;83.20
74513;DHT22;62992;52.052;8.550;2023-06-14T10:41:14;22.90;83.40
74513;DHT22;62992;52.052;8.550;2023-06-14T10:47:00;23.00;84.90
74513;DHT22;62992;52.052;8.550;2023-06-14T10:49:45;23.20;86.70
74513;DHT22;62992;52.052;8.550;2023-06-14T10:52:34;23.50;87.50
74513;DHT22;62992;52.052;8.550;2023-06-14T10:55:19;23.40;87.50
74513;DHT22;62992;52.052;8.550;2023-06-14T10:58:03;23.20;88.40
74513;DHT22;62992;52.052;8.550;2023-06-14T11:00:47;23.10;85.70
74513;DHT22;62992;52.052;8.550;2023-06-14T11:03:36;22.50;86.80
74513;DHT22;62992;52.052;8.550;2023-06-14T11:06:27;23.10;88.40
74513;DHT22;62992;52.052;8.550;2023-06-14T11:09:26;24.10;86.90
74513;DHT22;62992;52.052;8.550;2023-06-14T11:12:16;23.70;83.30
74513;DHT22;62992;52.052;8.550;2023-06-14T11:15:01;23.70;83.40
74513;DHT22;62992;52.052;8.550;2023-06-14T11:17:49;22.70;83.60
74513;DHT22;62992;52.052;8.550;2023-06-14T11:20:35;22.50;86.00
74513;DHT22;62992;52.052;8.550;2023-06-14T11:23:19;22.70;83.70
74513;DHT22;62992;52.052;8.550;2023-06-14T11:26:03;23.10;84.40
74513;DHT22;62992;52.052;8.550;2023-06-14T11:28:48;23.70;81.90
74513;DHT22;62992;52.052;8.550;2023-06-14T11:31:38;23.70;82.90
74513;DHT22;62992;52.052;8.550;2023-06-14T11:34:26;23.80;82.10
74513;DHT22;62992;52.052;8.550;2023-06-14T11:37:11;23.50;81.60
74513;DHT22;62992;52.052;8.550;2023-06-14T11:39:58;23.20;83.00
74513;DHT22;62992;52.052;8.550;2023-06-14T11:42:43;23.30;84.10
74513;DHT22;62992;52.052;8.550;2023-06-14T11:45:27;23.70;84.50
74513;DHT22;62992;52.052;8.550;2023-06-14T11:48:11;23.20;84.70
74513;DHT22;62992;52.052;8.550;2023-06-14T11:50:55;23.60;85.60
74513;DHT22;62992;52.052;8.550;2023-06-14T11:53:39;23.80;83.20
74513;DHT22;62992;52.052;8.550;2023-06-14T11:56:24;23.80;82.50
74513;DHT22;62992;52.052;8.550;2023-06-14T11:59:08;24.00;82.40
74513;DHT22;62992;52.052;8.550;2023-06-14T12:01:52;23.80;82.80
74513;DHT22;62992;52.052;8.550;2023-06-14T12:04:40;23.80;84.20
74513;DHT22;62992;52.052;8.550;2023-06-14T12:07:24;23.50;82.40
74513;DHT22;62992;52.052;8.550;2023-06-14T12:10:10;23.30;84.60
74513;DHT22;62992;52.052;8.550;2023-06-14T12:12:57;23.20;85.40
74513;DHT22;62992;52.052;8.550;2023-06-14T12:15:43;22.80;86.30
74513;DHT22;62992;52.052;8.550;2023-06-14T12:18:33;23.40;87.10
74513;DHT22;62992;52.052;8.550;2023-06-14T12:21:18;23.20;85.20
74513;DHT22;62992;52.052;8.550;2023-06-14T12:24:07;23.70;85.80
74513;DHT22;62992;52.052;8.550;2023-06-14T12:26:51;23.70;83.30
74513;DHT22;62992;52.052;8.550;2023-06-14T12:29:36;23.70;85.40
74513;DHT22;62992;52.052;8.550;2023-06-14T12:32:20;23.30;84.90
74513;DHT22;62992;52.052;8.550;2023-06-14T12:35:04;23.30;85.30
74513;DHT22;62992;52.052;8.550;2023-06-14T12:37:48;23.20;84.50
74513;DHT22;62992;52.052;8.550;2023-06-14T12:40:33;23.00;83.50
74513;DHT22;62992;52.052;8.550;2023-06-14T12:43:17;22.80;84.80
74513;DHT22;62992;52.052;8.550;2023-06-14T12:46:01;22.60;85.40
74513;DHT22;62992;52.052;8.550;2023-06-14T12:48:45;22.90;85.40
74513;DHT22;62992;52.052;8.550;2023-06-14T12:51:30;23.50;84.00
74513;DHT22;62992;52.052;8.550;2023-06-14T12:54:14;23.50;82.50
74513;DHT22;62992;52.052;8.550;2023-06-14T12:56:58;22.90;83.10
74513;DHT22;62992;52.052;8.550;2023-06-14T12:59:42;23.20;83.70
74513;DHT22;62992;52.052;8.550;2023-06-14T13:02:26;23.50;84.40
74513;DHT22;62992;52.052;8.550;2023-06-14T13:05:11;23.50;82.20
74513;DHT22;62992;52.052;8.550;2023-06-14T13:07:55;23.20;83.20
74513;DHT22;62992;52.052;8.550;2023-06-14T13:10:39;23.00;83.90
74513;DHT22;62992;52.052;8.550;2023-06-14T13:13:23;23.30;83.80
74513;DHT22;62992;52.052;8.550;2023-06-14T13:16:07;23.40;84.80
74513;DHT22;62992;52.052;8.550;2023-06-14T13:18:51;23.50;83.60
74513;DHT22;62992;52.052;8.550;2023-06-14T13:21:36;23.70;83.70
74513;DHT22;62992;52.052;8.550;2023-06-14T13:24:20;23.50;84.20
74513;DHT22;62992;52.052;8.550;2023-06-14T13:27:04;23.50;83.90
74513;DHT22;62992;52.052;8.550;2023-06-14T13:29:49;23.30;83.30
74513;DHT22;62992;52.052;8.550;2023-06-14T13:32:33;23.70;84.40
74513;DHT22;62992;52.052;8.550;2023-06-14T13:35:17;23.70;85.00
74513;DHT22;62992;52.052;8.550;2023-06-14T13:38:02;23.00;85.60
74513;DHT22;62992;52.052;8.550;2023-06-14T13:40:46;22.80;86.00
74513;DHT22;62992;52.052;8.550;2023-06-14T13:43:30;22.50;86.80
74513;DHT22;62992;52.052;8.550;2023-06-14T13:46:14;22.80;88.10
74513;DHT22;62992;52.052;8.550;2023-06-14T13:48:58;23.20;86.60
74513;DHT22;62992;52.052;8.550;2023-06-14T13:51:44;23.50;85.10
74513;DHT22;62992;52.052;8.550;2023-06-14T13:54:28;23.80;83.30
74513;DHT22;62992;52.052;8.550;2023-06-14T13:57:12;23.60;83.20
74513;DHT22;62992;52.052;8.550;2023-06-14T13:59:56;23.30;84.80
74513;DHT22;62992;52.052;8.550;2023-06-14T14:02:44;22.90;85.90
74513;DHT22;62992;52.052;8.550;2023-06-14T14:05:29;22.50;86.40
74513;DHT22;62992;52.052;8.550;2023-06-14T14:08:14;22.60;86.50
74513;DHT22;62992;52.052;8.550;2023-06-14T14:10:58;22.40;86.80
74513;DHT22;62992;52.052;8.550;2023-06-14T14:13:42;22.50;88.40
74513;DHT22;62992;52.052;8.550;2023-06-14T14:16:26;22.30;88.30
74513;DHT22;62992;52.052;8.550;2023-06-14T14:19:11;22.50;88.40
74513;DHT22;62992;52.052;8.550;2023-06-14T14:21:55;22.70;88.60
74513;DHT22;62992;52.052;8.550;2023-06-14T14:24:39;23.10;87.80
74513;DHT22;62992;52.052;8.550;2023-06-14T14:27:23;22.90;87.60
74513;DHT22;62992;52.052;8.550;2023-06-14T14:30:07;22.80;87.10
74513;DHT22;62992;52.052;8.550;2023-06-14T14:32:52;22.90;86.40
74513;DHT22;62992;52.052;8.550;2023-06-14T14:35:36;23.00;85.80
74513;DHT22;62992;52.052;8.550;2023-06-14T14:38:20;23.10;84.80
74513;DHT22;62992;52.052;8.550;2023-06-14T14:41:05;23.10;84.40
74513;DHT22;62992;52.052;8.550;2023-06-14T14:43:49;23.00;84.00
74513;DHT22;62992;52.052;8.550;2023-06-14T14:46:33;22.80;85.80
74513;DHT22;62992;52.052;8.550;2023-06-14T14:49:18;22.60;86.20
74513;DHT22;62992;52.052;8.550;2023-06-14T14:52:02;22.60;87.50
74513;DHT22;62992;52.052;8.550;2023-06-14T14:54:47;22.60;86.00
74513;DHT22;62992;52.052;8.550;2023-06-14T14:57:31;22.50;85.70
74513;DHT22;62992;52.052;8.550;2023-06-14T15:00:16;22.70;86.70
74513;DHT22;62992;52.052;8.550;2023-06-14T15:03:00;23.10;87.40
74513;DHT22;62992;52.052;8.550;2023-06-14T15:05:44;23.10;85.70
74513;DHT22;62992;52.052;8.550;2023-06-14T15:08:28;23.10;85.10
74513;DHT22;62992;52.052;8.550;2023-06-14T15:11:13;23.30;85.80
74513;DHT22;62992;52.052;8.550;2023-06-14T15:13:57;23.20;85.70
74513;DHT22;62992;52.052;8.550;2023-06-14T15:16:42;23.30;86.30
74513;DHT22;62992;52.052;8.550;2023-06-14T15:19:26;23.40;87.20
74513;DHT22;62992;52.052;8.550;2023-06-14T15:22:10;23.10;87.20
74513;DHT22;62992;52.052;8.550;2023-06-14T15:24:54;22.80;87.50
74513;DHT22;62992;52.052;8.550;2023-06-14T15:27:38;23.00;88.00
74513;DHT22;62992;52.052;8.550;2023-06-14T15:30:23;23.00;87.50
74513;DHT22;62992;52.052;8.550;2023-06-14T15:33:07;23.20;86.90
74513;DHT22;62992;52.052;8.550;2023-06-14T15:35:51;23.10;86.80
74513;DHT22;62992;52.052;8.550;2023-06-14T15:38:35;23.10;87.90
74513;DHT22;62992;52.052;8.550;2023-06-14T15:41:19;23.20;87.00
74513;DHT22;62992;52.052;8.550;2023-06-14T15:44:03;23.20;87.20
74513;DHT22;62992;52.052;8.550;2023-06-14T15:46:48;23.10;86.50
74513;DHT22;62992;52.052;8.550;2023-06-14T15:49:32;23.10;86.90
74513;DHT22;62992;52.052;8.550;2023-06-14T15:52:16;23.10;86.10
74513;DHT22;62992;52.052;8.550;2023-06-14T15:55:00;23.10;86.30
74513;DHT22;62992;52.052;8.550;2023-06-14T15:57:45;23.10;86.20
74513;DHT22;62992;52.052;8.550;2023-06-14T16:00:29;23.10;86.60
74513;DHT22;62992;52.052;8.550;2023-06-14T16:03:13;23.20;86.70
74513;DHT22;62992;52.052;8.550;2023-06-14T16:05:57;23.30;87.30
74513;DHT22;62992;52.052;8.550;2023-06-14T16:08:41;23.30;86.90
74513;DHT22;62992;52.052;8.550;2023-06-14T16:11:26;23.10;87.40
74513;DHT22;62992;52.052;8.550;2023-06-14T16:14:10;22.90;87.50
74513;DHT22;62992;52.052;8.550;2023-06-14T16:16:54;22.90;87.50
74513;DHT22;62992;52.052;8.550;2023-06-14T16:19:38;22.90;90.30
74513;DHT22;62992;52.052;8.550;2023-06-14T16:22:22;22.70;89.10
74513;DHT22;62992;52.052;8.550;2023-06-14T16:25:07;22.50;90.10
74513;DHT22;62992;52.052;8.550;2023-06-14T16:27:51;22.40;90.20
74513;DHT22;62992;52.052;8.550;2023-06-14T16:30:35;22.40;90.40
74513;DHT22;62992;52.052;8.550;2023-06-14T16:33:19;22.50;90.50
74513;DHT22;62992;52.052;8.550;2023-06-14T16:36:03;22.50;89.80
74513;DHT22;62992;52.052;8.550;2023-06-14T16:38:48;22.40;90.20
74513;DHT22;62992;52.052;8.550;2023-06-14T16:41:32;22.50;89.20
74513;DHT22;62992;52.052;8.550;2023-06-14T16:44:16;22.60;90.00
74513;DHT22;62992;52.052;8.550;2023-06-14T16:47:00;22.60;90.00
74513;DHT22;62992;52.052;8.550;2023-06-14T16:49:47;22.60;89.60
74513;DHT22;62992;52.052;8.550;2023-06-14T16:52:31;22.50;90.00
74513;DHT22;62992;52.052;8.550;2023-06-14T16:55:16;22.60;89.60
74513;DHT22;62992;52.052;8.550;2023-06-14T16:58:00;22.60;88.90
74513;DHT22;62992;52.052;8.550;2023-06-14T17:00:44;22.60;89.90
74513;DHT22;62992;52.052;8.550;2023-06-14T17:03:28;22.60;88.90
74513;DHT22;62992;52.052;8.550;2023-06-14T17:06:13;22.60;90.00
74513;DHT22;62992;52.052;8.550;2023-06-14T17:08:57;22.60;89.90
74513;DHT22;62992;52.052;8.550;2023-06-14T17:11:41;22.60;89.80
74513;DHT22;62992;52.052;8.550;2023-06-14T17:14:25;22.50;89.60
74513;DHT22;62992;52.052;8.550;2023-06-14T17:17:09;22.50;89.00
74513;DHT22;62992;52.052;8.550;2023-06-14T17:19:54;22.40;89.40
74513;DHT22;62992;52.052;8.550;2023-06-14T17:22:38;22.40;89.10
74513;DHT22;62992;52.052;8.550;2023-06-14T17:25:22;22.40;89.90
74513;DHT22;62992;52.052;8.550;2023-06-14T17:28:06;22.40;90.20
74513;DHT22;62992;52.052;8.550;2023-06-14T17:30:50;22.40;90.00
74513;DHT22;62992;52.052;8.550;2023-06-14T17:33:35;22.30;89.60
74513;DHT22;62992;52.052;8.550;2023-06-14T17:36:20;22.30;89.40